Time;durP1;ratioP1;P1;durP2;ratioP2;P2;SDS_P1;SDS_P2;PMS_P1;PMS_P2;Temp;Humidity;BMP_temperature;BMP_pressure;BME280_temperature;BME280_humidity;BME280_pressure;Samples;Min_cycle;Max_cycle;Signal;HPM_P1;HPM_P2
2022/02/09 00:00:04;;;;;;;2.27;1.60;;;;;;;8.99;92.46;99545.03;4186208;28;20212;-90
2022/02/09 00:04:42;;;;;;;3.03;2.28;;;;;;;8.95;92.90;99536.50;4182650;28;21191;-89
2022/02/09 00:06:59;;;;;;;2.97;2.20;;;;;;;8.93;91.79;99537.50;4183092;28;20201;-90
2022/02/09 00:09:07;;;;;;;3.25;2.08;;;;;;;8.96;92.04;99542.59;4187525;28;20213;-90
2022/02/09 00:11:15;;;;;;;5.47;2.00;;;;;;;8.97;91.76;99536.47;4188665;28;20569;-90
2022/02/09 00:13:37;;;;;;;3.50;2.45;;;;;;;8.93;92.05;99538.34;4183625;28;20669;-90
2022/02/09 00:15:48;;;;;;;5.28;2.72;;;;;;;8.89;92.20;99533.31;4169241;28;20672;-90
2022/02/09 00:18:00;;;;;;;4.07;2.67;;;;;;;8.90;91.86;99526.34;4174814;28;20261;-90
2022/02/09 00:20:29;;;;;;;5.65;2.55;;;;;;;8.91;92.24;99531.50;4185933;28;20631;-90
2022/02/09 00:22:44;;;;;;;5.22;2.25;;;;;;;8.93;93.12;99534.91;4169754;28;20272;-90
2022/02/09 00:25:10;;;;;;;4.53;2.30;;;;;;;8.94;92.86;99532.25;4199215;28;20220;-90
2022/02/09 00:39:30;;;;;;;3.10;2.17;;;;;;;9.07;91.28;99546.44;4184517;28;20847;-90
2022/02/09 01:11:14;;;;;;;2.95;2.60;;;;;;;9.13;90.67;99521.94;4187152;28;20642;-90
2022/02/09 01:38:33;;;;;;;2.73;1.90;;;;;;;8.94;90.76;99524.44;4186839;28;20638;-89
2022/02/09 01:57:04;;;;;;;2.30;1.70;;;;;;;8.91;91.41;99502.03;4189426;28;20708;-90
2022/02/09 01:59:07;;;;;;;3.03;1.63;;;;;;;8.94;91.24;99501.03;4175321;28;20214;-90
2022/02/09 02:01:10;;;;;;;2.70;1.60;;;;;;;8.99;90.96;99498.22;4186966;28;20240;-90
2022/02/09 02:03:15;;;;;;;1.95;1.50;;;;;;;9.05;91.11;99493.63;4192848;28;21181;-90
2022/02/09 02:05:18;;;;;;;2.43;1.97;;;;;;;9.09;91.39;99489.97;4206964;28;20209;-90
2022/02/09 02:07:30;;;;;;;3.33;1.80;;;;;;;9.12;91.13;99497.66;4185745;28;20624;-90
2022/02/09 02:09:36;;;;;;;2.50;1.55;;;;;;;9.16;89.99;99496.66;4186317;28;20697;-90
2022/02/09 02:11:45;;;;;;;2.77;1.97;;;;;;;9.18;90.77;99494.81;4174591;28;20220;-90
2022/02/09 02:14:10;;;;;;;4.10;1.60;;;;;;;9.22;90.10;99485.16;4174639;28;20751;-90
2022/02/09 02:16:24;;;;;;;2.07;1.60;;;;;;;9.25;89.86;99485.88;4189254;28;20644;-90
2022/02/09 02:18:29;;;;;;;2.80;1.77;;;;;;;9.27;89.94;99486.63;4174504;28;20660;-90
2022/02/09 02:20:41;;;;;;;3.30;1.93;;;;;;;9.31;90.10;99479.56;4178956;28;20647;-89
2022/02/09 02:23:03;;;;;;;2.60;1.73;;;;;;;9.30;89.91;99468.28;4172758;28;21259;-90
2022/02/09 02:25:36;;;;;;;2.83;1.83;;;;;;;9.30;89.63;99467.44;4186863;28;20686;-90
2022/02/09 02:27:57;;;;;;;2.13;1.50;;;;;;;9.30;89.57;99463.09;4182009;28;21023;-90
2022/02/09 02:30:18;;;;;;;2.60;1.83;;;;;;;9.28;89.62;99458.88;4166838;28;20636;-90
2022/02/09 02:39:55;;;;;;;2.90;2.00;;;;;;;9.33;89.65;99446.50;4167144;28;20688;-90
2022/02/09 02:45:31;;;;;;;2.60;1.90;;;;;;;9.34;89.52;99450.81;4176838;28;20635;-90
2022/02/09 02:47:28;;;;;;;3.20;2.00;;;;;;;9.34;88.58;99440.41;4190837;28;20642;-90
2022/02/09 02:59:26;;;;;;;3.90;2.00;;;;;;;9.38;88.93;99450.59;4155800;28;20634;-90
2022/02/09 03:08:46;;;;;;;3.03;1.87;;;;;;;9.30;89.40;99442.25;4190375;28;20624;-89
2022/02/09 03:13:14;;;;;;;2.47;2.03;;;;;;;9.31;89.13;99443.97;4166783;28;20679;-90
2022/02/09 03:15:32;;;;;;;2.07;1.67;;;;;;;9.33;89.33;99436.91;4184087;28;20700;-89
2022/02/09 03:17:41;;;;;;;2.67;1.63;;;;;;;9.34;88.64;99437.78;4187403;28;20659;-90
2022/02/09 03:19:57;;;;;;;3.87;1.93;;;;;;;9.36;88.96;99442.00;4188891;28;20704;-90
2022/02/09 03:22:15;;;;;;;2.80;2.00;;;;;;;9.36;88.84;99426.38;4174183;28;21285;-90
2022/02/09 03:24:33;;;;;;;3.07;1.77;;;;;;;9.38;88.60;99429.75;4190188;28;20624;-89
2022/02/09 03:27:00;;;;;;;2.10;1.80;;;;;;;9.38;88.40;99423.72;4171441;28;20626;-90
2022/02/09 03:42:18;;;;;;;2.83;1.60;;;;;;;9.35;88.41;99427.31;4186899;28;20792;-89
2022/02/09 03:48:43;;;;;;;2.10;1.50;;;;;;;9.30;88.56;99415.38;4153332;28;20739;-89
2022/02/09 03:51:10;;;;;;;3.17;1.60;;;;;;;9.30;88.99;99411.03;4174673;28;21392;-89
2022/02/09 03:53:24;;;;;;;2.10;1.40;;;;;;;9.31;88.95;99419.69;4169123;28;21237;-90
2022/02/09 03:55:40;;;;;;;2.92;1.60;;;;;;;9.31;88.28;99425.75;4174538;28;21279;-90
2022/02/09 03:57:45;;;;;;;2.43;1.50;;;;;;;9.30;87.84;99423.19;4189297;28;20226;-90
2022/02/09 03:59:52;;;;;;;3.43;1.70;;;;;;;9.33;88.66;99420.47;4172354;28;20649;-90
2022/02/09 04:01:57;;;;;;;2.90;1.60;;;;;;;9.33;88.46;99418.69;4184384;28;20649;-90
2022/02/09 04:04:01;;;;;;;2.10;1.50;;;;;;;9.33;88.92;99412.66;4187561;28;20638;-89
2022/02/09 04:06:04;;;;;;;3.50;1.60;;;;;;;9.31;88.69;99417.94;4187789;28;20627;-90
2022/02/09 04:08:11;;;;;;;2.00;1.80;;;;;;;9.30;88.82;99411.03;4188754;28;20627;-90
2022/02/09 04:10:19;;;;;;;2.67;1.70;;;;;;;9.31;88.46;99411.88;4172154;28;21442;-90
2022/02/09 04:12:34;;;;;;;3.43;1.80;;;;;;;9.31;88.02;99404.91;4172410;28;20626;-90
2022/02/09 04:14:47;;;;;;;2.10;1.50;;;;;;;9.34;88.60;99403.94;4169661;28;20640;-91
2022/02/09 04:16:59;;;;;;;2.05;1.52;;;;;;;9.35;88.79;99400.41;4168296;28;20627;-90
2022/02/09 04:19:14;;;;;;;1.70;1.40;;;;;;;9.34;88.49;99401.34;4203816;28;20742;-90
2022/02/09 04:38:07;;;;;;;2.13;1.40;;;;;;;9.24;88.59;99400.03;4172623;28;20905;-89
2022/02/09 04:40:15;;;;;;;2.20;1.60;;;;;;;9.24;89.09;99400.88;4191072;28;20207;-89
2022/02/09 04:42:44;;;;;;;3.27;1.50;;;;;;;9.25;89.31;99393.94;4192616;28;20643;-90
2022/02/09 04:45:04;;;;;;;3.65;1.55;;;;;;;9.25;88.98;99396.53;4170200;28;20639;-89
2022/02/09 04:47:25;;;;;;;1.80;1.33;;;;;;;9.26;88.58;99404.28;4166409;28;20380;-90
2022/02/09 04:49:56;;;;;;;3.45;1.60;;;;;;;9.27;88.74;99405.09;4185903;28;20635;-89
2022/02/09 04:52:18;;;;;;;2.30;1.37;;;;;;;9.26;89.17;99406.00;4186935;28;20219;-90
2022/02/09 04:54:30;;;;;;;3.53;1.60;;;;;;;9.23;88.90;99404.41;4185484;28;20689;-90
2022/02/09 04:56:43;;;;;;;3.73;1.70;;;;;;;9.22;88.70;99402.69;4188474;28;21356;-90
2022/02/09 04:58:52;;;;;;;2.87;2.33;;;;;;;9.22;88.41;99402.69;4186607;28;21061;-90
2022/02/09 05:01:01;;;;;;;4.10;1.60;;;;;;;9.21;88.66;99406.19;4187907;28;21358;-90
2022/02/09 05:03:35;;;;;;;2.43;1.93;;;;;;;9.20;89.12;99390.66;4185514;28;20727;-90
2022/02/09 05:18:06;;;;;;;4.20;2.17;;;;;;;9.17;89.16;99382.97;4139313;28;20260;-90
2022/02/09 05:25:14;;;;;;;3.83;2.40;;;;;;;9.21;90.02;99390.59;4163788;28;20641;-91
2022/02/09 05:27:20;;;;;;;3.00;2.10;;;;;;;9.22;89.59;99392.28;4164193;28;20252;-90
2022/02/09 05:29:26;;;;;;;3.97;2.13;;;;;;;9.24;89.50;99394.81;4163887;28;20644;-90
2022/02/09 05:31:29;;;;;;;3.53;2.17;;;;;;;9.22;89.10;99379.28;4163011;28;20628;-90
2022/02/09 05:33:32;;;;;;;5.90;2.17;;;;;;;9.23;89.81;99387.91;4188278;28;21216;-90
2022/02/09 05:35:35;;;;;;;4.97;2.17;;;;;;;9.23;89.22;99388.78;4188500;28;20695;-90
2022/02/09 05:37:38;;;;;;;3.70;2.40;;;;;;;9.25;89.32;99386.13;4168469;28;20737;-90
2022/02/09 05:39:41;;;;;;;5.05;3.20;;;;;;;9.25;89.02;99389.56;4185724;28;20319;-90
2022/02/09 05:41:47;;;;;;;4.27;3.20;;;;;;;9.25;89.21;99392.16;4184113;28;20284;-90
2022/02/09 05:43:50;;;;;;;3.90;3.00;;;;;;;9.24;89.17;99393.06;4171663;28;20748;-92
2022/02/09 05:46:25;;;;;;;4.00;2.73;;;;;;;9.26;89.24;99393.88;4171153;28;20686;-88
2022/02/09 05:50:53;;;;;;;3.33;2.90;;;;;;;9.26;89.10;99388.66;4187715;28;20631;-89
2022/02/09 05:53:09;;;;;;;5.13;3.40;;;;;;;9.24;89.19;99392.22;4204503;28;20686;-89
2022/02/09 05:55:34;;;;;;;6.43;2.90;;;;;;;9.23;89.21;99394.00;4189128;28;20628;-88
2022/02/09 05:57:48;;;;;;;5.07;3.20;;;;;;;9.21;88.94;99393.19;4184140;28;20643;-90
2022/02/09 05:59:53;;;;;;;4.43;2.70;;;;;;;9.21;89.14;99394.94;4173826;28;20647;-90
2022/02/09 06:01:56;;;;;;;3.53;2.40;;;;;;;9.20;88.81;99394.13;4170591;28;20641;-91
2022/02/09 06:03:59;;;;;;;3.73;2.90;;;;;;;9.21;89.08;99395.78;4171415;28;20643;-91
2022/02/09 06:06:03;;;;;;;7.37;3.30;;;;;;;9.22;88.51;99396.66;4189737;28;20638;-90
2022/02/09 06:08:06;;;;;;;5.97;4.50;;;;;;;9.21;88.80;99406.19;4192619;28;20642;-91
2022/02/09 06:10:16;;;;;;;5.17;2.83;;;;;;;9.18;88.91;99403.72;4175442;28;20735;-88
2022/02/09 06:12:25;;;;;;;4.00;2.83;;;;;;;9.17;88.45;99391.66;4179283;28;20626;-88
2022/02/09 06:14:52;;;;;;;5.00;3.30;;;;;;;9.18;89.23;99392.47;4188319;28;20716;-89
2022/02/09 06:21:38;;;;;;;4.60;3.25;;;;;;;9.15;89.42;99405.63;4188187;28;20750;-88
2022/02/09 06:23:41;;;;;;;4.57;3.87;;;;;;;9.15;89.20;99406.44;4182124;28;20209;-89
2022/02/09 06:25:44;;;;;;;3.70;3.03;;;;;;;9.15;89.21;99400.41;4165393;28;20636;-91
2022/02/09 06:27:49;;;;;;;5.30;3.03;;;;;;;9.14;89.67;99404.78;4172047;28;20723;-91
2022/02/09 06:29:54;;;;;;;3.20;2.73;;;;;;;9.12;89.78;99406.59;4171459;28;20663;-91
2022/02/09 06:32:07;;;;;;;3.93;3.03;;;;;;;9.10;89.21;99408.41;4191218;28;20631;-91
2022/02/09 06:34:12;;;;;;;3.70;3.00;;;;;;;9.10;89.72;99405.81;4193632;28;20619;-92
2022/02/09 06:36:22;;;;;;;6.03;3.40;;;;;;;9.12;89.44;99406.59;4190809;28;20656;-91
2022/02/09 06:38:27;;;;;;;6.33;3.30;;;;;;;9.11;89.35;99407.50;4190782;28;20200;-92
2022/02/09 06:40:32;;;;;;;6.17;3.93;;;;;;;9.12;89.70;99406.59;4189803;28;20664;-91
2022/02/09 06:42:39;;;;;;;6.07;4.13;;;;;;;9.13;90.05;99402.25;4194106;28;20655;-92
2022/02/09 06:44:43;;;;;;;4.60;3.80;;;;;;;9.15;88.88;99400.41;4190546;28;20205;-91
2022/02/09 06:46:47;;;;;;;6.10;4.33;;;;;;;9.10;89.27;99405.81;4173883;28;20616;-91
2022/02/09 06:48:51;;;;;;;6.35;3.92;;;;;;;9.10;89.92;99408.41;4201278;28;21002;-95
2022/02/09 06:50:57;;;;;;;7.20;4.20;;;;;;;9.11;89.34;99401.44;4184717;28;20225;-90
2022/02/09 06:53:11;;;;;;;6.97;4.47;;;;;;;9.13;89.58;99403.06;4173252;28;20206;-91
2022/02/09 06:55:17;;;;;;;7.33;4.43;;;;;;;9.13;89.03;99397.88;4185538;28;20737;-92
2022/02/09 06:57:32;;;;;;;5.50;4.22;;;;;;;9.13;89.39;99397.03;4183947;28;20629;-91
2022/02/09 06:59:41;;;;;;;6.33;4.37;;;;;;;9.11;89.95;99397.09;4193944;28;20237;-91
2022/02/09 07:01:44;;;;;;;5.70;4.17;;;;;;;9.11;89.59;99393.63;4195605;28;20715;-91
2022/02/09 07:03:49;;;;;;;6.47;3.93;;;;;;;9.09;88.37;99392.88;4176525;28;21232;-91
2022/02/09 07:05:52;;;;;;;6.78;4.45;;;;;;;9.10;88.07;99397.16;4178185;28;20625;-90
2022/02/09 07:07:55;;;;;;;4.37;3.87;;;;;;;9.04;88.24;99403.47;4185536;28;20213;-91
2022/02/09 07:09:58;;;;;;;5.87;3.97;;;;;;;9.03;87.57;99399.16;4190344;28;20643;-85
2022/02/09 07:12:06;;;;;;;7.97;4.20;;;;;;;9.03;87.18;99391.34;4172445;28;20739;-87
2022/02/09 07:14:10;;;;;;;6.25;4.20;;;;;;;9.04;87.39;99395.66;4174755;28;20709;-87
2022/02/09 07:16:13;;;;;;;5.85;4.10;;;;;;;9.06;87.21;99399.03;4174281;28;20218;-87
2022/02/09 07:18:17;;;;;;;5.38;4.20;;;;;;;9.06;87.40;99400.78;4186243;28;20301;-87
2022/02/09 07:20:24;;;;;;;7.15;4.13;;;;;;;9.06;86.76;99396.44;4173095;28;20687;-87
2022/02/09 07:22:28;;;;;;;5.70;3.83;;;;;;;9.11;86.98;99399.72;4192057;28;20209;-86
2022/02/09 07:24:32;;;;;;;12.10;4.30;;;;;;;9.11;86.76;99398.84;4175949;28;20702;-84
2022/02/09 07:27:00;;;;;;;8.70;4.27;;;;;;;9.14;86.72;99396.97;4176057;28;20640;-84
2022/02/09 07:29:04;;;;;;;9.10;5.72;;;;;;;9.18;86.59;99406.31;4172114;28;20629;-85
2022/02/09 07:31:08;;;;;;;8.57;5.80;;;;;;;9.24;87.40;99400.88;4191386;28;20256;-84
2022/02/09 07:33:11;;;;;;;6.20;4.57;;;;;;;9.31;86.95;99394.50;4173256;28;20249;-83
2022/02/09 07:35:17;;;;;;;6.90;4.90;;;;;;;9.36;86.28;99395.16;4185690;28;20671;-84
2022/02/09 07:37:22;;;;;;;13.00;7.90;;;;;;;9.40;87.33;99399.31;4189558;28;20642;-84
2022/02/09 07:39:25;;;;;;;8.75;5.50;;;;;;;9.41;87.56;99398.38;4191266;28;20612;-85
2022/02/09 07:41:28;;;;;;;7.90;5.60;;;;;;;9.43;87.32;99402.63;4190787;28;20221;-86
2022/02/09 07:43:45;;;;;;;8.33;5.17;;;;;;;9.45;87.15;99397.34;4167331;28;20617;-85
2022/02/09 07:46:13;;;;;;;6.13;4.30;;;;;;;9.47;87.86;99400.72;4169864;28;20719;-85
2022/02/09 07:48:38;;;;;;;6.70;4.83;;;;;;;9.53;86.95;99403.94;4188933;28;20630;-82
2022/02/09 07:50:44;;;;;;;5.53;4.03;;;;;;;9.59;87.88;99402.81;4188757;28;21046;-83
2022/02/09 07:52:52;;;;;;;6.60;4.67;;;;;;;9.62;87.84;99398.34;4206802;28;20712;-82
2022/02/09 07:54:57;;;;;;;6.93;5.17;;;;;;;9.63;88.25;99397.41;4185608;28;20655;-82
2022/02/09 07:57:00;;;;;;;8.40;5.30;;;;;;;9.67;88.48;99400.72;4188968;28;20642;-82
2022/02/09 07:59:04;;;;;;;7.37;4.70;;;;;;;9.70;88.37;99398.00;4192241;28;21203;-82
2022/02/09 08:01:07;;;;;;;4.22;3.75;;;;;;;9.75;88.03;99398.63;4206973;28;20743;-82
2022/02/09 08:03:12;;;;;;;6.60;3.87;;;;;;;9.78;87.62;99398.50;4166458;28;20241;-82
2022/02/09 08:05:21;;;;;;;5.23;4.43;;;;;;;9.83;86.97;99399.13;4190549;28;20689;-83
2022/02/09 08:07:28;;;;;;;8.93;5.27;;;;;;;9.87;87.21;99394.56;4185816;28;21196;-82
2022/02/09 08:09:36;;;;;;;13.33;7.63;;;;;;;9.89;85.92;99395.34;4175603;28;20644;-83
2022/02/09 08:11:46;;;;;;;14.13;9.43;;;;;;;9.90;86.48;99389.19;4191705;28;21339;-83
2022/02/09 08:33:07;;;;;;;8.70;6.03;;;;;;;10.92;82.36;99374.75;4217290;27;21399;-82
2022/02/09 08:35:10;;;;;;;16.30;10.30;;;;;;;10.87;82.09;99372.38;4204670;28;20646;-80
2022/02/09 08:37:14;;;;;;;9.50;6.53;;;;;;;10.84;82.91;99372.53;4201277;28;20732;-82
2022/02/09 08:39:17;;;;;;;9.90;5.47;;;;;;;10.93;83.40;99381.66;4203680;28;20635;-82
2022/02/09 08:41:20;;;;;;;6.03;4.50;;;;;;;11.07;81.60;99372.22;4203324;28;20712;-81
2022/02/09 08:43:23;;;;;;;7.20;4.80;;;;;;;11.18;80.81;99367.31;4218406;28;20738;-85
2022/02/09 08:45:27;;;;;;;5.07;4.20;;;;;;;11.32;81.97;99365.69;4183776;28;20634;-85
2022/02/09 08:47:30;;;;;;;4.80;3.83;;;;;;;11.47;82.08;99364.97;4187371;28;20616;-85
2022/02/09 08:49:35;;;;;;;5.30;4.17;;;;;;;11.68;81.11;99370.81;4185080;28;20681;-84
2022/02/09 08:51:38;;;;;;;5.47;4.23;;;;;;;12.00;81.51;99371.66;4217608;28;20657;-84
2022/02/09 08:53:41;;;;;;;7.63;4.40;;;;;;;12.30;79.35;99373.47;4185897;28;20710;-85
2022/02/09 08:55:45;;;;;;;6.47;4.30;;;;;;;12.52;78.11;99376.56;4185661;28;21032;-84
2022/02/09 08:57:48;;;;;;;5.23;4.30;;;;;;;12.56;77.06;99366.78;4235270;28;20979;-84
2022/02/09 08:59:52;;;;;;;6.70;4.53;;;;;;;12.52;77.67;99370.50;4202134;28;20741;-84
2022/02/09 09:02:00;;;;;;;7.70;5.40;;;;;;;12.57;77.59;99368.47;4202247;28;20622;-84
2022/02/09 09:04:12;;;;;;;7.53;4.20;;;;;;;12.67;78.03;99365.25;4185697;28;20747;-85
2022/02/09 09:06:21;;;;;;;6.83;4.40;;;;;;;12.83;77.44;99371.34;4216642;28;20643;-85
2022/02/09 09:08:42;;;;;;;7.57;4.17;;;;;;;12.93;76.44;99365.50;4181044;28;20638;-84
2022/02/09 09:11:00;;;;;;;5.53;4.03;;;;;;;12.99;75.79;99359.91;4219450;28;20641;-84
2022/02/09 09:58:05;;;;;;;4.83;3.47;;;;;;;13.86;72.30;99358.94;4170023;28;21336;-85
2022/02/09 10:02:46;;;;;;;9.77;5.97;;;;;;;13.89;72.82;99345.63;4172859;28;20648;-86
2022/02/09 10:05:22;;;;;;;13.50;7.50;;;;;;;13.84;71.74;99350.28;4190428;28;21110;-86
2022/02/09 10:32:25;;;;;;;3.43;2.50;;;;;;;14.20;69.29;99329.69;4166903;28;20653;-86
2022/02/09 10:34:27;;;;;;;5.90;3.37;;;;;;;14.22;70.87;99333.06;4187450;28;20659;-85
2022/02/09 10:36:31;;;;;;;6.13;3.03;;;;;;;14.30;72.00;99328.19;4188837;28;20636;-85
2022/02/09 10:38:37;;;;;;;6.13;3.43;;;;;;;14.37;71.08;99332.09;4186001;28;20636;-84
2022/02/09 10:40:47;;;;;;;6.13;4.47;;;;;;;14.38;71.61;99326.75;4172720;28;21080;-84
2022/02/09 10:42:56;;;;;;;4.30;3.07;;;;;;;14.34;69.71;99324.41;4187793;28;20677;-85
2022/02/09 10:45:07;;;;;;;4.63;2.77;;;;;;;14.25;71.17;99323.22;4173571;28;20751;-85
2022/02/09 10:47:20;;;;;;;5.03;2.87;;;;;;;14.28;70.31;99315.16;4173199;28;20650;-85
2022/02/09 10:49:27;;;;;;;4.80;2.60;;;;;;;14.30;69.09;99310.63;4172165;28;20741;-85
2022/02/09 10:51:36;;;;;;;6.07;4.10;;;;;;;14.26;70.14;99316.19;4191157;28;20732;-85
2022/02/09 10:54:07;;;;;;;8.67;3.50;;;;;;;14.33;69.87;99309.63;4190422;28;20756;-85
2022/02/09 10:56:10;;;;;;;6.23;3.30;;;;;;;14.39;70.37;99302.19;4202131;28;20638;-85
2022/02/09 10:58:15;;;;;;;5.90;3.00;;;;;;;14.35;69.32;99291.97;4192012;28;20699;-85
2022/02/09 11:00:20;;;;;;;5.20;2.80;;;;;;;14.39;69.54;99296.09;4171275;28;20692;-84
2022/02/09 11:02:25;;;;;;;7.60;3.67;;;;;;;14.45;70.40;99272.03;4172692;28;20696;-85
2022/02/09 11:04:30;;;;;;;7.30;2.97;;;;;;;14.49;69.88;99277.00;4188809;28;20708;-84
2022/02/09 11:06:34;;;;;;;7.07;4.37;;;;;;;14.55;69.72;99273.16;4177656;28;21056;-85
2022/02/09 11:08:37;;;;;;;4.20;2.60;;;;;;;14.53;70.60;99267.16;4173059;28;20630;-84
2022/02/09 11:10:44;;;;;;;4.40;2.50;;;;;;;14.58;69.30;99265.91;4205527;28;21211;-85
2022/02/09 11:12:50;;;;;;;3.40;2.43;;;;;;;14.53;70.19;99257.50;4188889;28;20681;-85
2022/02/09 11:14:56;;;;;;;3.30;1.97;;;;;;;14.55;69.46;99254.78;4171202;28;21612;-84
2022/02/09 11:17:05;;;;;;;5.17;2.80;;;;;;;14.53;68.80;99251.41;4187923;28;20631;-85
2022/02/09 11:19:09;;;;;;;6.20;2.43;;;;;;;14.55;68.61;99245.09;4168555;28;20646;-85
2022/02/09 11:21:14;;;;;;;4.23;2.17;;;;;;;14.45;69.47;99245.78;4171365;28;21078;-85
2022/02/09 11:23:38;;;;;;;5.83;2.57;;;;;;;14.40;69.95;99242.63;4190435;28;21078;-85
2022/02/09 11:25:52;;;;;;;4.00;2.63;;;;;;;14.34;68.82;99245.66;4169347;28;21084;-86
2022/02/09 11:28:17;;;;;;;5.90;3.40;;;;;;;14.38;70.45;99239.28;4172654;28;20687;-85
2022/02/09 11:30:30;;;;;;;5.63;2.60;;;;;;;14.36;69.22;99241.19;4172079;28;20635;-84
2022/02/09 11:32:43;;;;;;;4.17;2.43;;;;;;;14.35;69.05;99232.44;4186899;28;20655;-86
2022/02/09 11:35:23;;;;;;;5.07;2.63;;;;;;;14.31;70.67;99237.97;4186391;28;20682;-85
2022/02/09 11:37:50;;;;;;;4.40;2.90;;;;;;;14.29;70.85;99226.75;4190918;28;20655;-85
2022/02/09 11:39:59;;;;;;;7.00;2.67;;;;;;;14.29;70.00;99226.75;4190072;28;20627;-85
2022/02/09 11:42:27;;;;;;;5.23;2.50;;;;;;;14.33;70.00;99230.88;4191702;28;20651;-85
2022/02/09 11:44:47;;;;;;;6.17;2.77;;;;;;;14.31;70.49;99222.25;4192288;28;20719;-85
2022/02/09 11:52:05;;;;;;;3.80;2.17;;;;;;;14.13;70.97;99220.81;4180800;28;20699;-85
2022/02/09 11:57:03;;;;;;;5.03;2.50;;;;;;;14.13;71.54;99225.22;4189682;28;20623;-84
2022/02/09 11:59:49;;;;;;;4.40;2.63;;;;;;;14.18;71.21;99218.75;4185046;28;20620;-83
2022/02/09 12:08:45;;;;;;;3.90;2.40;;;;;;;14.24;71.47;99218.34;4186858;28;20637;-84
2022/02/09 12:10:13;;;;;;;9.40;7.07;;;;;;;14.21;70.59;99208.06;4183118;28;20664;-84
2022/02/09 12:12:20;;;;;;;6.30;3.63;;;;;;;14.24;70.83;99200.81;4187602;28;20683;-84
2022/02/09 12:14:51;;;;;;;12.10;6.80;;;;;;;14.28;71.37;99191.81;4170267;28;20758;-84
2022/02/09 12:17:24;;;;;;;4.93;2.50;;;;;;;14.31;69.35;99198.63;4180985;28;20736;-85
2022/02/09 12:19:32;;;;;;;4.90;2.67;;;;;;;14.24;71.08;99192.94;4167588;28;21292;-85
2022/02/09 12:21:41;;;;;;;4.53;2.27;;;;;;;14.20;70.08;99183.56;4185554;28;20642;-84
2022/02/09 12:23:48;;;;;;;4.43;2.83;;;;;;;14.23;71.15;99186.00;4169713;28;21220;-85
2022/02/09 12:25:52;;;;;;;5.50;2.87;;;;;;;14.28;69.47;99185.69;4183693;28;20734;-85
2022/02/09 12:27:57;;;;;;;5.07;2.67;;;;;;;14.34;70.24;99177.41;4172800;28;20729;-85
2022/02/09 12:30:10;;;;;;;4.07;2.40;;;;;;;14.38;70.74;99177.13;4171858;28;21108;-86
2022/02/09 12:32:24;;;;;;;3.90;2.50;;;;;;;14.43;69.68;99174.19;4189509;28;21291;-84
2022/02/09 12:34:30;;;;;;;3.50;2.30;;;;;;;14.40;69.28;99171.78;4187753;28;20639;-84
2022/02/09 12:36:37;;;;;;;4.37;2.53;;;;;;;14.36;70.32;99175.56;4173653;28;21224;-84
2022/02/09 12:38:41;;;;;;;3.63;2.00;;;;;;;14.35;70.09;99171.25;4190778;28;21214;-84
2022/02/09 12:40:45;;;;;;;3.30;2.00;;;;;;;14.36;70.75;99170.31;4173117;28;20635;-85
2022/02/09 12:42:49;;;;;;;4.67;2.83;;;;;;;14.41;69.86;99161.16;4186417;28;20633;-85
2022/02/09 12:44:59;;;;;;;4.77;2.50;;;;;;;14.45;69.56;99160.03;4186376;28;20666;-84
2022/02/09 12:47:03;;;;;;;3.17;2.00;;;;;;;14.45;69.64;99164.41;4172029;28;20640;-85
2022/02/09 12:49:06;;;;;;;2.90;2.33;;;;;;;14.42;70.10;99156.78;4172515;28;20638;-84
2022/02/09 12:51:10;;;;;;;6.63;2.53;;;;;;;14.41;69.78;99150.66;4179504;28;20762;-84
2022/02/09 12:53:14;;;;;;;4.30;2.47;;;;;;;14.44;69.24;99160.97;4173682;28;20733;-84
2022/02/09 12:55:19;;;;;;;4.90;2.50;;;;;;;14.46;68.72;99148.56;4178646;28;21490;-84
2022/02/09 12:57:34;;;;;;;4.10;1.90;;;;;;;14.47;69.90;99146.81;4187264;28;20644;-85
2022/02/09 12:59:37;;;;;;;3.77;2.17;;;;;;;14.45;70.06;99149.53;4187713;28;21066;-84
2022/02/09 13:01:44;;;;;;;4.53;2.10;;;;;;;14.46;69.21;99151.19;4186156;28;20652;-84
2022/02/09 13:03:48;;;;;;;6.13;2.20;;;;;;;14.49;68.43;99152.78;4202388;28;20690;-85
2022/02/09 13:05:52;;;;;;;4.50;1.97;;;;;;;14.50;68.35;99152.69;4187194;28;20629;-84
2022/02/09 13:07:57;;;;;;;4.17;2.27;;;;;;;14.54;69.02;99153.31;4170030;28;21100;-84
2022/02/09 13:10:02;;;;;;;9.40;5.90;;;;;;;14.57;69.01;99142.59;4184461;28;20690;-84
2022/02/09 13:12:08;;;;;;;7.37;2.50;;;;;;;14.56;69.92;99146.19;4185398;28;20671;-85
2022/02/09 13:14:12;;;;;;;3.60;2.30;;;;;;;14.60;70.22;99143.25;4185148;28;20760;-85
2022/02/09 13:16:33;;;;;;;2.93;1.70;;;;;;;14.57;69.01;99132.97;4171321;28;20726;-84
2022/02/09 13:18:56;;;;;;;4.00;2.47;;;;;;;14.59;68.50;99130.22;4206282;28;20691;-84
2022/02/09 14:03:24;;;;;;;5.83;2.00;;;;;;;14.60;69.83;99083.69;4168749;28;20637;-84
2022/02/09 14:10:23;;;;;;;5.37;2.00;;;;;;;14.61;69.02;99072.25;4175069;28;20646;-84
2022/02/09 14:10:55;;;;;;;5.50;2.10;;;;;;;14.64;67.86;99077.28;4169884;28;20626;-85
2022/02/09 14:13:14;;;;;;;7.43;2.33;;;;;;;14.64;69.00;99066.78;4184712;28;20691;-85
2022/02/09 14:15:31;;;;;;;5.70;1.93;;;;;;;14.64;67.85;99066.78;4170015;28;20658;-85
2022/02/09 14:48:47;;;;;;;5.43;2.00;;;;;;;14.56;68.32;99052.50;4178155;28;20660;-84
2022/02/09 14:53:10;;;;;;;4.33;2.13;;;;;;;14.56;68.33;99052.50;4190084;28;20651;-84
2022/02/09 14:55:29;;;;;;;6.73;2.10;;;;;;;14.54;67.69;99048.28;4174912;28;21246;-85
2022/02/09 14:57:38;;;;;;;3.50;2.10;;;;;;;14.52;68.16;99051.03;4169372;28;20739;-84
2022/02/09 15:00:04;;;;;;;4.30;1.73;;;;;;;14.53;68.73;99044.00;4168756;28;20663;-84
2022/02/09 15:02:12;;;;;;;4.90;2.57;;;;;;;14.50;67.79;99046.84;4187557;28;20692;-84
2022/02/09 15:04:30;;;;;;;4.03;2.13;;;;;;;14.45;68.96;99039.28;4188344;28;21088;-84
2022/02/09 15:09:01;;;;;;;5.77;1.97;;;;;;;14.37;68.94;99043.34;4168453;28;20743;-85
2022/02/09 15:11:13;;;;;;;9.77;3.40;;;;;;;14.31;68.05;99041.16;4171200;28;20700;-85
2022/02/09 15:13:33;;;;;;;11.40;4.10;;;;;;;14.28;68.73;99041.34;4183666;28;21486;-84
2022/02/09 15:15:49;;;;;;;12.47;4.80;;;;;;;14.27;69.37;99042.31;4186995;28;20665;-85
2022/02/09 15:18:19;;;;;;;4.43;2.73;;;;;;;14.25;68.91;99037.19;4186321;28;20630;-85
2022/02/09 15:20:43;;;;;;;3.60;1.97;;;;;;;14.25;68.28;99033.69;4169332;28;20688;-85
2022/02/09 15:22:52;;;;;;;6.97;2.30;;;;;;;14.23;68.32;99035.59;4183369;28;21002;-84
2022/02/09 15:24:55;;;;;;;9.73;4.10;;;;;;;14.17;68.99;99031.59;4168893;28;20641;-84
2022/02/09 15:27:00;;;;;;;5.10;2.90;;;;;;;14.17;68.97;99049.13;4170093;28;20729;-84
2022/02/09 15:29:05;;;;;;;3.90;2.17;;;;;;;14.16;69.48;99042.19;4186034;28;20622;-84
2022/02/09 15:31:16;;;;;;;4.10;2.00;;;;;;;14.16;69.73;99040.44;4168289;28;20649;-84
2022/02/09 15:33:24;;;;;;;4.60;2.17;;;;;;;14.16;69.16;99037.81;4169540;28;20634;-84
2022/02/09 15:35:54;;;;;;;4.30;2.00;;;;;;;14.17;68.97;99042.09;4167897;28;20663;-85
2022/02/09 15:38:01;;;;;;;3.57;1.90;;;;;;;14.13;68.73;99037.16;4186506;28;20638;-84
2022/02/09 15:40:12;;;;;;;4.00;1.90;;;;;;;14.09;69.05;99034.81;4183486;28;21037;-84
2022/02/09 15:42:57;;;;;;;6.40;2.10;;;;;;;14.08;68.84;99035.78;4181989;28;20692;-84
2022/02/09 15:57:13;;;;;;;6.47;2.53;;;;;;;13.91;70.37;99021.16;4186977;28;21208;-85
2022/02/09 15:59:41;;;;;;;3.33;2.23;;;;;;;13.89;69.84;99035.28;4184895;28;20646;-85
2022/02/09 16:06:50;;;;;;;5.73;2.97;;;;;;;13.80;70.87;99021.03;4184947;28;20666;-86
2022/02/09 16:09:16;;;;;;;5.67;2.40;;;;;;;13.79;70.92;99021.97;4166678;28;20749;-85
2022/02/09 16:11:35;;;;;;;4.32;2.80;;;;;;;13.75;70.84;99012.59;4182244;28;20766;-85
2022/02/09 16:23:03;;;;;;;5.43;2.37;;;;;;;13.61;71.53;99005.78;4186437;28;20769;-84
2022/02/09 16:25:21;;;;;;;6.27;2.20;;;;;;;13.58;71.73;99006.81;4184181;28;20698;-84
2022/02/09 16:37:27;;;;;;;221.70;119.60;;;;;;;13.29;72.66;98996.53;4179843;28;20649;-84
2022/02/09 16:44:23;;;;;;;11.47;7.60;;;;;;;13.08;73.11;98992.69;4184883;28;20680;-85
2022/02/09 16:46:26;;;;;;;16.30;11.90;;;;;;;13.01;73.20;98994.00;4165444;28;20635;-85
2022/02/09 16:48:30;;;;;;;18.50;9.13;;;;;;;12.95;73.85;98994.41;4182166;28;20647;-85
2022/02/09 16:50:38;;;;;;;15.20;10.10;;;;;;;12.88;74.13;98987.84;4186909;28;20694;-86
2022/02/09 16:52:45;;;;;;;10.43;6.00;;;;;;;12.83;73.42;98992.56;4169702;28;20662;-85
2022/02/09 16:54:55;;;;;;;15.60;8.90;;;;;;;12.76;74.05;98993.84;4172648;28;21074;-85
2022/02/09 16:57:09;;;;;;;23.60;12.90;;;;;;;12.61;74.64;98995.72;4172662;28;20696;-84
2022/02/09 17:11:15;;;;;;;12.90;9.17;;;;;;;12.25;74.83;98992.75;4189342;28;20734;-85